createdAt,value
2022-08-30T13:34:30.285Z,2349
2022-08-30T13:35:29.703Z,2022
2022-08-30T13:36:29.722Z,1995
2022-08-30T13:37:47.560Z,1561
2022-08-30T13:39:29.915Z,1917
2022-08-30T13:40:29.780Z,1656
2022-08-30T13:41:30.003Z,2118
2022-08-30T13:42:32.955Z,1622
2022-08-30T13:44:29.909Z,2029
2022-08-30T13:45:42.933Z,2106
2022-08-30T13:46:29.776Z,1642
2022-08-30T13:47:33.372Z,1933
2022-08-30T13:49:44.886Z,1872
2022-08-30T13:50:30.476Z,1416
2022-08-30T13:51:29.723Z,1854
2022-08-30T13:52:29.732Z,1499
2022-08-30T13:54:29.914Z,1836
2022-08-30T13:55:29.776Z,1733
2022-08-30T13:56:29.731Z,1746
2022-08-30T13:57:55.036Z,1691
2022-08-30T13:59:29.903Z,1758
2022-08-30T14:00:32.387Z,1706
2022-08-30T14:01:30.020Z,1634
2022-08-30T14:02:29.742Z,1798
2022-08-30T14:04:29.984Z,1851
2022-08-30T14:05:49.174Z,2029
2022-08-30T14:06:33.854Z,1834
2022-08-30T14:07:29.739Z,1694
2022-08-30T14:09:29.926Z,2029
2022-08-30T14:10:31.313Z,1670
2022-08-30T14:11:29.752Z,2088
2022-08-30T14:12:53.141Z,2098
2022-08-30T14:14:42.077Z,1956
2022-08-30T14:15:29.772Z,1969
2022-08-30T14:16:29.818Z,1881
2022-08-30T14:17:29.822Z,1393
2022-08-30T14:19:29.928Z,1613
2022-08-30T14:20:29.729Z,1520
2022-08-30T14:21:29.729Z,1474
2022-08-30T14:22:29.735Z,1328
2022-08-30T14:24:29.973Z,1286
2022-08-30T14:25:29.733Z,1269
2022-08-30T14:26:32.457Z,982
2022-08-30T14:27:29.754Z,952
2022-08-30T14:29:29.995Z,1041
2022-08-30T14:30:29.764Z,1106
2022-08-30T14:31:29.861Z,1002
2022-08-30T14:32:29.730Z,783
2022-08-30T14:34:29.938Z,883
2022-08-30T14:35:29.728Z,679
2022-08-30T14:36:29.752Z,800
2022-08-30T14:37:29.749Z,805
2022-08-30T14:39:29.929Z,540
2022-08-30T14:40:29.787Z,604
2022-08-30T14:41:29.774Z,606
2022-08-30T14:42:29.774Z,515
2022-08-30T14:44:37.509Z,673
2022-08-30T14:45:29.750Z,646
2022-08-30T14:46:29.799Z,536
2022-08-30T14:47:30.044Z,682
2022-08-30T14:49:29.915Z,721
2022-08-30T14:50:29.779Z,758
2022-08-30T14:51:29.781Z,805
2022-08-30T14:52:29.775Z,845
2022-08-30T14:54:29.966Z,645
2022-08-30T14:55:29.751Z,1038
2022-08-30T14:56:29.746Z,1008
2022-08-30T14:57:29.749Z,1045
2022-08-30T14:59:29.920Z,1039
2022-08-30T15:00:29.841Z,886
2022-08-30T15:01:29.794Z,1106
2022-08-30T15:02:29.802Z,856
2022-08-30T15:04:29.984Z,1055
2022-08-30T15:05:29.815Z,890
2022-08-30T15:06:29.785Z,1091
2022-08-30T15:07:29.756Z,1065
2022-08-30T15:09:29.928Z,803
2022-08-30T15:10:29.783Z,981
2022-08-30T15:11:29.767Z,945
2022-08-30T15:12:29.763Z,908
2022-08-30T15:14:29.935Z,858
2022-08-30T15:15:29.785Z,889
2022-08-30T15:16:29.858Z,668
2022-08-30T15:17:29.765Z,643
2022-08-30T15:19:29.962Z,618
2022-08-30T15:20:29.808Z,695
2022-08-30T15:21:29.828Z,679
2022-08-30T15:22:29.833Z,664
2022-08-30T15:24:30.136Z,600
2022-08-30T15:25:29.771Z,529
2022-08-30T15:26:29.766Z,617
2022-08-30T15:27:29.789Z,483
2022-08-30T15:29:30.763Z,570
2022-08-30T15:30:29.788Z,446
2022-08-30T15:31:29.799Z,530
2022-08-30T15:32:29.808Z,433
2022-08-30T15:34:29.971Z,516
2022-08-30T15:35:29.795Z,414
2022-08-30T15:36:29.809Z,493
2022-08-30T15:37:29.804Z,414
2022-08-30T15:39:29.981Z,486
2022-08-30T15:40:29.817Z,503
2022-08-30T15:41:29.785Z,498
2022-08-30T15:42:29.803Z,507
2022-08-30T15:44:29.968Z,538
2022-08-30T15:45:29.776Z,473
2022-08-30T15:46:30.252Z,417
2022-08-30T15:47:29.810Z,520
2022-08-30T15:49:29.990Z,557
2022-08-30T15:50:29.815Z,410
2022-08-30T15:51:30.729Z,531
2022-08-30T15:52:29.778Z,445
2022-08-30T15:54:29.985Z,483
2022-08-30T15:55:29.779Z,572
2022-08-30T15:56:29.792Z,520
2022-08-30T15:57:29.807Z,518
2022-08-30T15:59:29.970Z,698
2022-08-30T16:00:29.890Z,695
2022-08-30T16:01:30.110Z,720
2022-08-30T16:02:29.831Z,589
2022-08-30T16:04:29.976Z,606
2022-08-30T16:05:29.816Z,894
2022-08-30T16:06:29.793Z,896
2022-08-30T16:07:29.804Z,711
2022-08-30T16:09:32.348Z,709
2022-08-30T16:10:29.822Z,954
2022-08-30T16:11:29.879Z,926
2022-08-30T16:12:29.862Z,731
2022-08-30T16:14:29.993Z,869
2022-08-30T16:15:29.792Z,771
2022-08-30T16:16:29.972Z,896
2022-08-30T16:17:30.423Z,855
2022-08-30T16:19:30.001Z,695
2022-08-30T16:20:29.828Z,801
2022-08-30T16:21:29.797Z,761
2022-08-30T16:22:29.808Z,706
2022-08-30T16:24:29.970Z,490
2022-08-30T16:25:39.786Z,508
2022-08-30T16:26:29.825Z,572
2022-08-30T16:27:29.846Z,473
2022-08-30T16:29:29.981Z,425
2022-08-30T16:30:29.851Z,535
2022-08-30T16:31:29.907Z,522
2022-08-30T16:32:29.873Z,514
2022-08-30T16:34:30.014Z,472
2022-08-30T16:35:29.836Z,535
2022-08-30T16:36:29.807Z,433
2022-08-30T16:37:29.871Z,532
2022-08-30T16:39:30.016Z,497
2022-08-30T16:40:29.870Z,414
2022-08-30T16:41:30.398Z,488
2022-08-30T16:42:29.816Z,414
2022-08-30T16:44:30.087Z,414
2022-08-30T16:45:33.029Z,460
2022-08-30T16:46:29.865Z,408
2022-08-30T16:47:29.872Z,450
2022-08-30T16:48:50.426Z,531
2022-08-30T16:49:50.423Z,400
2022-08-30T16:50:50.440Z,567
2022-08-30T16:52:50.613Z,612
2022-08-30T16:53:50.428Z,461
2022-08-30T16:54:52.145Z,600
2022-08-30T16:55:50.378Z,448
2022-08-30T16:57:50.558Z,454
2022-08-30T16:58:52.851Z,597
2022-08-30T16:59:50.889Z,578
2022-08-30T17:00:50.393Z,432
2022-08-30T17:02:53.457Z,443
2022-08-30T17:03:50.424Z,650
2022-08-30T17:04:53.001Z,500
2022-08-30T17:05:50.440Z,660
2022-08-30T17:07:50.586Z,491
2022-08-30T17:08:50.737Z,672
2022-08-30T17:09:50.432Z,699
2022-08-30T17:10:50.392Z,539
2022-08-30T17:12:50.563Z,515
2022-08-30T17:13:50.801Z,808
2022-08-30T17:14:50.397Z,744
2022-08-30T17:15:50.428Z,591
2022-08-30T17:17:50.561Z,704
2022-08-30T17:18:50.397Z,776
2022-08-30T17:19:50.466Z,749
2022-08-30T17:20:50.465Z,542
2022-08-30T17:22:22.545Z,519
2022-08-30T17:23:09.555Z,712
2022-08-30T17:24:50.451Z,536
2022-08-30T17:25:50.459Z,715
2022-08-30T17:27:50.634Z,537
2022-08-30T17:28:50.450Z,702
2022-08-30T17:29:50.447Z,683
2022-08-30T17:30:51.089Z,506
2022-08-30T17:32:50.595Z,592
2022-08-30T17:33:50.409Z,444
2022-08-30T17:34:50.429Z,602
2022-08-30T17:35:50.447Z,650
2022-08-30T17:37:51.207Z,481
2022-08-30T17:38:50.409Z,580
2022-08-30T17:39:50.411Z,679
2022-08-30T17:40:50.465Z,683
2022-08-30T17:42:50.603Z,683
2022-08-30T17:43:50.453Z,744
2022-08-30T17:44:50.406Z,719
2022-08-30T17:45:50.445Z,581
2022-08-30T17:47:50.595Z,682
2022-08-30T17:48:56.500Z,765
2022-08-30T17:49:50.509Z,793
2022-08-30T17:50:50.459Z,795
2022-08-30T17:52:50.608Z,793
2022-08-30T17:53:50.462Z,759
2022-08-30T17:54:50.470Z,591
2022-08-30T17:55:50.476Z,618
2022-08-30T17:57:50.857Z,806
2022-08-30T17:58:50.460Z,646
2022-08-30T17:59:50.471Z,646
2022-08-30T18:00:50.460Z,868
2022-08-30T18:02:50.668Z,855
2022-08-30T18:03:51.850Z,836
2022-08-30T18:04:50.469Z,706
2022-08-30T18:05:50.465Z,678
2022-08-30T18:07:50.624Z,942
2022-08-30T18:08:50.415Z,900
2022-08-30T18:09:50.415Z,940
2022-08-30T18:10:50.423Z,700
2022-08-30T18:12:50.593Z,717
2022-08-30T18:13:50.427Z,768
2022-08-30T18:14:52.740Z,972
2022-08-30T18:15:50.770Z,1047
2022-08-30T18:17:50.604Z,1110
2022-08-30T18:18:53.873Z,840
2022-08-30T18:19:50.482Z,672
2022-08-30T18:20:50.435Z,868
2022-08-30T18:22:50.591Z,907
2022-08-30T18:23:50.429Z,1224
2022-08-30T18:24:50.477Z,1220
2022-08-30T18:25:50.470Z,1307
2022-08-30T18:27:57.216Z,1360
2022-08-30T18:28:50.468Z,1220
2022-08-30T18:29:50.437Z,1053
2022-08-30T18:30:50.504Z,1110
2022-08-30T18:32:50.608Z,1474
2022-08-30T18:33:50.442Z,1453
2022-08-30T18:34:50.479Z,1288
2022-08-30T18:35:50.513Z,1482
2022-08-30T18:37:50.613Z,1178
2022-08-30T18:38:50.432Z,1669
2022-08-30T18:39:50.482Z,1281
2022-08-30T18:40:50.563Z,1706
2022-08-30T18:42:50.624Z,1345
2022-08-30T18:43:58.206Z,1933
2022-08-30T18:44:50.483Z,1499
2022-08-30T18:45:50.440Z,2001
2022-08-30T18:47:50.714Z,1569
2022-08-30T18:48:50.490Z,1416
2022-08-30T18:49:50.493Z,1558
2022-08-30T18:50:50.488Z,2158
2022-08-30T18:52:50.616Z,2255
2022-08-30T18:53:50.443Z,2461
2022-08-30T18:54:52.858Z,2408
2022-08-30T18:55:50.448Z,1937
2022-08-30T18:57:50.641Z,1973
2022-08-30T18:58:50.523Z,2583
2022-08-30T18:59:50.485Z,2704
2022-08-30T19:00:50.794Z,2072
2022-08-30T19:02:50.651Z,2806
2022-08-30T19:03:50.496Z,2659
2022-08-30T19:04:50.493Z,2760
2022-08-30T19:05:50.486Z,2291
2022-08-30T19:07:50.658Z,2120
2022-08-30T19:08:50.492Z,2905
2022-08-30T19:09:51.285Z,3057
2022-08-30T19:10:50.449Z,3104
2022-08-30T19:12:50.640Z,3249
2022-08-30T19:13:50.455Z,3221
2022-08-30T19:14:50.461Z,3261
2022-08-30T19:15:50.499Z,3315
2022-08-30T19:17:50.653Z,2574
2022-08-30T19:18:50.497Z,3780
2022-08-30T19:19:52.099Z,3710
2022-08-30T19:20:50.509Z,3934
2022-08-30T19:23:08.453Z,3923
2022-08-30T19:23:54.447Z,3923
2022-08-30T19:24:50.469Z,4000
2022-08-30T19:25:51.550Z,3968
2022-08-30T19:27:50.648Z,4154
2022-08-30T19:28:50.508Z,4000
2022-08-30T19:29:53.025Z,4238
2022-08-30T19:30:50.504Z,4146
2022-08-30T19:32:50.672Z,4290
2022-08-30T19:33:50.516Z,3525
2022-08-30T19:34:50.512Z,4250
2022-08-30T19:35:51.236Z,4364
2022-08-30T19:37:50.640Z,4423
2022-08-30T19:38:50.510Z,4926
2022-08-30T19:39:50.522Z,4870
2022-08-30T19:42:50.745Z,5016
2022-08-30T19:43:50.514Z,4635
2022-08-30T19:44:50.518Z,4802
2022-08-30T19:45:50.529Z,4771
2022-08-30T19:47:50.658Z,4916
2022-08-30T19:48:50.506Z,5087
2022-08-30T19:49:50.466Z,3734
2022-08-30T19:50:50.559Z,3887
2022-08-30T19:52:54.020Z,4702
2022-08-30T19:53:50.511Z,5348
2022-08-30T19:54:50.478Z,5393
2022-08-30T19:55:50.518Z,4083
2022-08-30T19:57:50.673Z,4238
2022-08-30T19:58:50.475Z,5409
2022-08-30T19:59:50.519Z,5478
2022-08-30T20:00:53.044Z,5598
2022-08-30T20:02:51.169Z,4290
2022-08-30T20:03:51.873Z,4385
2022-08-30T20:04:50.532Z,5723
2022-08-30T20:05:50.523Z,5646
2022-08-30T20:07:50.985Z,3553
2022-08-30T20:08:50.490Z,5723
2022-08-30T20:09:50.527Z,5805
2022-08-30T20:10:50.486Z,4556
2022-08-30T20:12:50.664Z,5918
2022-08-30T20:13:50.532Z,6455
2022-08-30T20:14:50.538Z,6381
2022-08-30T20:15:53.954Z,4870
2022-08-30T20:18:03.618Z,6455
2022-08-30T20:18:50.529Z,6516
2022-08-30T20:19:50.542Z,6593
2022-08-30T20:20:50.531Z,6809
2022-08-30T20:22:51.001Z,5550
2022-08-30T20:23:50.575Z,4402
2022-08-30T20:24:50.498Z,6842
2022-08-30T20:25:50.526Z,6243
2022-08-30T20:27:50.729Z,6764
2022-08-30T20:28:50.496Z,6984
2022-08-30T20:29:50.535Z,6984
2022-08-30T20:30:50.522Z,5691
2022-08-30T20:32:50.695Z,5162
2022-08-30T20:33:50.536Z,6116
2022-08-30T20:34:50.544Z,7257
2022-08-30T20:35:50.558Z,5957
2022-08-30T20:37:50.768Z,7670
2022-08-30T20:38:50.566Z,5041
2022-08-30T20:39:50.542Z,5363
2022-08-30T20:40:50.596Z,5424
2022-08-30T20:42:50.669Z,7215
2022-08-30T20:43:50.546Z,7236
2022-08-30T20:44:50.495Z,5723
2022-08-30T20:45:50.636Z,5614
2022-08-30T20:47:50.682Z,7405
2022-08-30T20:48:50.500Z,7892
2022-08-30T20:49:50.547Z,5691
2022-08-30T20:50:50.501Z,5435
2022-08-30T20:52:50.681Z,7419
2022-08-30T20:53:50.551Z,7961
2022-08-30T20:54:54.539Z,7798
2022-08-30T20:55:50.547Z,5691
2022-08-30T20:57:50.676Z,7626
2022-08-30T20:58:50.503Z,6003
2022-08-30T20:59:50.507Z,7992
2022-08-30T21:00:50.504Z,7922
2022-08-30T21:02:50.740Z,7922
2022-08-30T21:03:50.556Z,7899
2022-08-30T21:04:50.574Z,6165
2022-08-30T21:05:50.555Z,7899
2022-08-30T21:07:50.707Z,6485
2022-08-30T21:08:50.590Z,6027
2022-08-30T21:09:50.552Z,5980
2022-08-30T21:10:50.580Z,7701
2022-08-30T21:12:50.718Z,7612
2022-08-30T21:13:50.584Z,5856
2022-08-30T21:14:50.574Z,7678
2022-08-30T21:15:50.577Z,7745
2022-08-30T21:17:50.671Z,7813
2022-08-30T21:18:50.563Z,7510
2022-08-30T21:19:50.518Z,5832
2022-08-30T21:20:50.515Z,7612
2022-08-30T21:22:50.702Z,7575
2022-08-30T21:23:50.548Z,7922
2022-08-30T21:24:50.583Z,6049
2022-08-30T21:25:50.568Z,7854
2022-08-30T21:27:50.682Z,7783
2022-08-30T21:28:50.521Z,7723
2022-08-30T21:29:50.565Z,5815
2022-08-30T21:30:50.666Z,5312
2022-08-30T21:32:50.697Z,6911
2022-08-30T21:33:50.569Z,6081
2022-08-30T21:34:50.525Z,5815
2022-08-30T21:35:50.566Z,7678
2022-08-30T21:37:50.752Z,6530
2022-08-30T21:38:50.573Z,7723
2022-08-30T21:39:50.585Z,7663
2022-08-30T21:40:50.560Z,5849
2022-08-30T21:42:50.758Z,7575
2022-08-30T21:43:50.569Z,7854
2022-08-30T21:44:50.529Z,7985
2022-08-30T21:45:50.669Z,5861
2022-08-30T21:47:50.708Z,7685
2022-08-30T21:48:50.537Z,7832
2022-08-30T21:49:50.523Z,5997
2022-08-30T21:50:50.576Z,6032
2022-08-30T21:52:50.725Z,7483
2022-08-30T21:53:50.574Z,7148
2022-08-30T21:54:50.587Z,5620
2022-08-30T21:55:50.580Z,7939
2022-08-30T21:57:50.809Z,7832
2022-08-30T21:58:50.580Z,5483
2022-08-30T21:59:50.583Z,5327
2022-08-30T22:00:50.570Z,5696
2022-08-30T22:02:52.936Z,5636
2022-08-30T22:03:50.585Z,5756
2022-08-30T22:04:50.579Z,5636
2022-08-30T22:05:50.579Z,7524
2022-08-30T22:07:50.734Z,5696
2022-08-30T22:08:50.580Z,5992
2022-08-30T22:09:50.617Z,7348
2022-08-30T22:10:50.609Z,6745
2022-08-30T22:12:50.758Z,6971
2022-08-30T22:13:50.585Z,7813
2022-08-30T22:14:50.541Z,7813
2022-08-30T22:15:50.539Z,7992
2022-08-30T22:17:50.728Z,7341
2022-08-30T22:18:50.582Z,5702
2022-08-30T22:19:50.543Z,7376
2022-08-30T22:20:50.574Z,7161
2022-08-30T22:22:50.713Z,6231
2022-08-30T22:23:50.550Z,6700
2022-08-30T22:24:50.545Z,7985
2022-08-30T22:25:50.588Z,7923
2022-08-30T22:27:50.724Z,5873
2022-08-30T22:28:50.583Z,7992
2022-08-30T22:29:50.542Z,5152
2022-08-30T22:30:50.592Z,7032
2022-08-30T22:32:50.744Z,5815
2022-08-30T22:33:50.597Z,7071
2022-08-30T22:34:50.596Z,6713
2022-08-30T22:35:50.624Z,6666
2022-08-30T22:37:51.145Z,5252
2022-08-30T22:38:50.621Z,6882
2022-08-30T22:39:50.616Z,6804
2022-08-30T22:40:50.626Z,6938
2022-08-30T22:42:50.753Z,7140
2022-08-30T22:43:50.602Z,6796
2022-08-30T22:44:50.624Z,6610
2022-08-30T22:45:50.659Z,5337
2022-08-30T22:47:50.801Z,7071
2022-08-30T22:48:50.581Z,6516
2022-08-30T22:49:50.596Z,6823
2022-08-30T22:50:50.575Z,5353
2022-08-30T22:52:50.752Z,5217
2022-08-30T22:53:50.558Z,6862
2022-08-30T22:54:50.598Z,6843
2022-08-30T22:55:50.583Z,6171
2022-08-30T22:57:50.759Z,6171
2022-08-30T22:58:50.600Z,6862
2022-08-30T22:59:50.558Z,6647
2022-08-30T23:00:54.752Z,5167
2022-08-30T23:02:50.761Z,5425
2022-08-30T23:03:50.602Z,7236
2022-08-30T23:04:50.610Z,6543
2022-08-30T23:05:50.614Z,7004
2022-08-30T23:07:50.755Z,6680
2022-08-30T23:08:50.606Z,6680
2022-08-30T23:09:50.581Z,6732
2022-08-30T23:10:50.606Z,5282
2022-08-30T23:12:50.767Z,6918
2022-08-30T23:13:50.607Z,6171
2022-08-30T23:14:50.617Z,6418
2022-08-30T23:15:50.619Z,5541
2022-08-30T23:17:50.782Z,6249
2022-08-30T23:18:50.561Z,4771
2022-08-30T23:19:50.574Z,6231
2022-08-30T23:20:50.567Z,6231
2022-08-30T23:22:50.749Z,4771
2022-08-30T23:23:50.605Z,4907
2022-08-30T23:24:50.574Z,5647
2022-08-30T23:25:51.730Z,5658
2022-08-30T23:27:50.801Z,6261
2022-08-30T23:28:50.570Z,5353
2022-08-30T23:29:50.647Z,5494
2022-08-30T23:30:50.576Z,6309
2022-08-30T23:32:50.767Z,4988
2022-08-30T23:33:50.579Z,4779
2022-08-30T23:34:50.579Z,6454
2022-08-30T23:35:50.568Z,6213
2022-08-30T23:37:53.063Z,6309
2022-08-30T23:38:50.582Z,4931
2022-08-30T23:39:50.580Z,4586
2022-08-30T23:40:50.582Z,5620
2022-08-30T23:42:50.775Z,6261
2022-08-30T23:43:50.654Z,6081
2022-08-30T23:44:50.583Z,5772
2022-08-30T23:45:50.642Z,5466
2022-08-30T23:47:50.792Z,4813
2022-08-30T23:48:50.821Z,6016
2022-08-30T23:49:50.586Z,6064
2022-08-30T23:50:50.585Z,5844
2022-08-30T23:52:50.770Z,4761
2022-08-30T23:53:50.582Z,4725
2022-08-30T23:54:50.589Z,6016
2022-08-30T23:55:50.627Z,5986
2022-08-30T23:57:50.758Z,5946
2022-08-30T23:58:50.657Z,4461
2022-08-30T23:59:50.634Z,4779
